Amery, Wisconsin
Current Conditions -  °F | °C
As of 1:15 PM on Friday 31 Oct 2014 (Local Time) from KRNH Reporting Station
Clear Clear  
Wind Chill: 29°   Ceiling: Unl
Heat Index: 37°   Visibility: 10mi
Dew Point: 17°   Wind: 13mph
Humidity: 43%   Direction: 40°NE
Pressure: 30.52"   Gusts: 18mph
Location:  45.31°N, 92.36°W
Report Text: KRNH 311815Z AUTO 04011G16KT 10SM CLR 03/M08 A3052 RMK AO2 T00291085
Loading
Personal Weather Stations






























Interactive Weather Map
Tropical Storm Tracking
New forecast layout! Learn more

10-Day Weather Forecast

Advertisements
Track Severe Weather on mobile